createdAt,value
2024-04-19T00:00:38.298Z,101045.69
2024-04-19T00:03:07.561Z,101051.44
2024-04-19T00:05:35.973Z,101048.09
2024-04-19T00:08:04.462Z,101050.47
2024-04-19T00:10:32.748Z,101046.41
2024-04-19T00:13:00.800Z,101047.44
2024-04-19T00:15:28.895Z,101043.44
2024-04-19T00:17:57.325Z,101034.41
2024-04-19T00:20:26.563Z,101038.38
2024-04-19T00:22:54.592Z,101037.81
2024-04-19T00:25:22.650Z,101039.06
2024-04-19T00:27:50.864Z,101037.47
2024-04-19T00:30:19.238Z,101039.56
2024-04-19T00:32:47.341Z,101030.38
2024-04-19T00:35:21.165Z,101028.69
2024-04-19T00:37:49.370Z,101026.88
2024-04-19T00:40:17.791Z,101025.03
2024-04-19T00:42:45.973Z,101029.28
2024-04-19T00:45:38.770Z,101029.03
2024-04-19T00:48:22.949Z,101026.19
2024-04-19T00:50:52.714Z,101030.59
2024-04-19T00:53:23.449Z,101036.06
2024-04-19T00:55:51.776Z,101037.66
2024-04-19T00:58:19.991Z,101036.38
2024-04-19T01:00:48.124Z,101035.19
2024-04-19T01:03:16.247Z,101033.19
2024-04-19T01:05:44.268Z,101036.81
2024-04-19T01:08:12.501Z,101039.63
2024-04-19T01:10:40.074Z,101040.25
2024-04-19T01:13:07.492Z,101038.19
2024-04-19T01:15:37.286Z,101035.25
2024-04-19T01:18:07.061Z,101036.09
2024-04-19T01:20:35.030Z,101048.25
2024-04-19T01:23:03.093Z,101055.91
2024-04-19T01:25:36.001Z,101048.16
2024-04-19T01:28:07.087Z,101050.09
2024-04-19T01:30:35.188Z,101052.91
2024-04-19T01:33:03.253Z,101052.81
2024-04-19T01:35:31.020Z,101050.03
2024-04-19T01:37:59.106Z,101046.34
2024-04-19T01:40:26.778Z,101048.75
2024-04-19T01:42:55.114Z,101053.13
2024-04-19T01:45:23.224Z,101061.91
2024-04-19T01:47:51.358Z,101067.09
2024-04-19T01:50:19.236Z,101072.06
2024-04-19T01:52:47.671Z,101068.50
2024-04-19T01:55:17.617Z,101077.13
2024-04-19T01:57:45.783Z,101073.75
2024-04-19T02:00:14.668Z,101081.75
2024-04-19T02:02:42.904Z,101073.31
2024-04-19T02:05:11.184Z,101065.13
2024-04-19T02:07:39.042Z,101078.28
2024-04-19T02:10:09.007Z,101068.44
2024-04-19T02:12:37.449Z,101070.56
2024-04-19T02:15:07.028Z,101069.69
2024-04-19T02:17:35.286Z,101072.91
2024-04-19T02:20:04.418Z,101078.97
2024-04-19T02:22:32.123Z,101078.38
2024-04-19T02:24:59.910Z,101068.97
2024-04-19T02:27:46.162Z,101081.88
2024-04-19T02:30:32.831Z,101074.22
2024-04-19T02:35:49.472Z,101087.56
2024-04-19T02:38:17.672Z,101082.34
2024-04-19T02:40:45.507Z,101081.38
2024-04-19T02:43:13.304Z,101080.22
2024-04-19T02:45:50.721Z,101080.31
2024-04-19T02:48:24.063Z,101074.63
2024-04-19T02:50:51.704Z,101079.88
2024-04-19T02:53:19.714Z,101079.44
2024-04-19T02:55:48.179Z,101081.81
2024-04-19T02:58:16.374Z,101083.56
2024-04-19T03:00:44.170Z,101085.16
2024-04-19T03:03:12.495Z,101081.13
2024-04-19T03:05:40.407Z,101079.81
2024-04-19T03:08:08.713Z,101078.56
2024-04-19T03:11:07.320Z,101085.03
2024-04-19T03:13:35.396Z,101090.75
2024-04-19T03:16:07.626Z,101094.59
2024-04-19T03:18:35.343Z,101092.16
2024-04-19T03:21:03.089Z,101087.94
2024-04-19T03:23:31.480Z,101089.28
2024-04-19T03:26:22.223Z,101083.78
2024-04-19T03:28:52.421Z,101086.09
2024-04-19T03:31:20.558Z,101084.31
2024-04-19T03:33:48.347Z,101091.81
2024-04-19T03:36:16.588Z,101091.13
2024-04-19T03:38:47.015Z,101085.66
2024-04-19T03:41:14.750Z,101091.19
2024-04-19T03:43:53.368Z,101092.09
2024-04-19T03:46:21.696Z,101097.81
2024-04-19T03:48:50.321Z,101085.28
2024-04-19T03:51:18.174Z,101084.09
2024-04-19T03:53:46.169Z,101081.06
2024-04-19T03:56:13.901Z,101082.53
2024-04-19T03:58:41.610Z,101087.13
2024-04-19T04:01:09.451Z,101070.72
2024-04-19T04:03:37.579Z,101081.22
2024-04-19T04:06:06.576Z,101084.66
2024-04-19T04:08:34.998Z,101095.84
2024-04-19T04:11:03.006Z,101089.22
2024-04-19T04:13:31.135Z,101091.47
2024-04-19T04:15:58.801Z,101097.22
2024-04-19T04:18:27.083Z,101098.00
2024-04-19T04:20:55.132Z,101101.88
2024-04-19T04:23:23.377Z,101099.75
2024-04-19T04:25:51.726Z,101106.00
2024-04-19T04:28:20.157Z,101116.78
2024-04-19T04:30:48.609Z,101114.72
2024-04-19T04:33:16.179Z,101116.47
2024-04-19T04:35:45.574Z,101109.63
2024-04-19T04:38:14.176Z,101113.16
2024-04-19T04:40:42.658Z,101117.53
2024-04-19T04:43:10.723Z,101113.81
2024-04-19T04:45:39.135Z,101111.34
2024-04-19T04:48:09.760Z,101110.91
2024-04-19T04:50:37.708Z,101113.34
2024-04-19T04:53:05.994Z,101121.47
2024-04-19T04:55:34.329Z,101121.28
2024-04-19T04:58:01.766Z,101134.03
2024-04-19T05:00:33.462Z,101133.72
2024-04-19T05:03:01.618Z,101137.47
2024-04-19T05:05:30.354Z,101135.63
2024-04-19T05:07:58.872Z,101131.50
2024-04-19T05:10:27.375Z,101137.41
2024-04-19T05:12:55.413Z,101133.84
2024-04-19T05:15:23.323Z,101144.78
2024-04-19T05:17:51.570Z,101147.97
2024-04-19T05:20:19.736Z,101149.03
2024-04-19T05:22:47.920Z,101146.06
2024-04-19T05:25:15.381Z,101150.03
2024-04-19T05:27:44.964Z,101149.22
2024-04-19T05:30:13.278Z,101153.38
2024-04-19T05:32:41.122Z,101149.94
2024-04-19T05:35:09.616Z,101155.75
2024-04-19T05:37:38.354Z,101142.44
2024-04-19T05:40:08.875Z,101142.91
2024-04-19T05:42:37.349Z,101146.34
2024-04-19T05:45:05.646Z,101136.78
2024-04-19T05:47:33.676Z,101140.63
2024-04-19T05:50:01.894Z,101137.34
2024-04-19T05:52:29.962Z,101148.53
2024-04-19T05:54:57.843Z,101149.91
2024-04-19T05:57:26.367Z,101147.13
2024-04-19T05:59:55.865Z,101139.94
2024-04-19T06:02:23.979Z,101136.97
2024-04-19T06:04:51.550Z,101138.97
2024-04-19T06:07:22.606Z,101142.09
2024-04-19T06:09:51.270Z,101144.88
2024-04-19T06:12:20.065Z,101150.91
2024-04-19T06:14:48.466Z,101160.72
2024-04-19T06:17:17.323Z,101164.22
2024-04-19T06:19:45.826Z,101165.53
2024-04-19T06:22:14.122Z,101168.63
2024-04-19T06:24:42.291Z,101172.19
2024-04-19T06:27:10.429Z,101153.38
2024-04-19T06:29:38.608Z,101157.81
2024-04-19T06:32:08.724Z,101161.47
2024-04-19T06:34:38.086Z,101164.09
2024-04-19T06:37:05.862Z,101170.72
2024-04-19T06:39:34.562Z,101171.69
2024-04-19T06:42:02.713Z,101170.19
2024-04-19T06:44:30.798Z,101173.19
2024-04-19T06:46:58.610Z,101166.44
2024-04-19T06:49:26.922Z,101173.16
2024-04-19T06:51:55.265Z,101170.19
2024-04-19T06:54:23.629Z,101172.59
2024-04-19T06:56:51.843Z,101172.81
2024-04-19T06:59:20.190Z,101172.88
2024-04-19T07:01:48.814Z,101172.47
2024-04-19T07:04:17.251Z,101167.59
2024-04-19T07:06:46.959Z,101167.84
2024-04-19T07:09:17.530Z,101164.25
2024-04-19T07:11:46.904Z,101170.00
2024-04-19T07:14:15.082Z,101168.69
2024-04-19T07:16:43.959Z,101170.00
2024-04-19T07:19:12.430Z,101172.56
2024-04-19T07:21:41.076Z,101167.81
2024-04-19T07:24:10.629Z,101159.66
2024-04-19T07:26:40.169Z,101162.19
2024-04-19T07:29:07.377Z,101156.41
2024-04-19T07:31:36.252Z,101162.22
2024-04-19T07:34:04.378Z,101153.31
2024-04-19T07:36:32.884Z,101156.09
2024-04-19T07:39:00.802Z,101154.81
2024-04-19T07:41:29.509Z,101154.13
2024-04-19T07:44:01.183Z,101154.47
2024-04-19T07:46:30.339Z,101155.91
2024-04-19T07:48:58.641Z,101156.97
2024-04-19T07:51:26.631Z,101156.03
2024-04-19T07:53:54.515Z,101155.94
2024-04-19T07:56:22.790Z,101155.63
2024-04-19T07:58:50.606Z,101153.75
2024-04-19T08:01:19.096Z,101154.41
2024-04-19T08:03:50.129Z,101156.53
2024-04-19T08:06:18.630Z,101158.91
2024-04-19T08:08:47.513Z,101154.03
2024-04-19T08:11:15.765Z,101157.06
2024-04-19T08:13:44.112Z,101158.56
2024-04-19T08:16:12.397Z,101158.25
2024-04-19T08:18:40.328Z,101163.41
2024-04-19T08:21:08.431Z,101165.38
2024-04-19T08:23:36.620Z,101170.81
2024-04-19T08:26:04.593Z,101161.38
2024-04-19T08:28:33.098Z,101165.25
2024-04-19T08:31:01.886Z,101150.41
2024-04-19T08:33:30.131Z,101169.84
2024-04-19T08:35:58.261Z,101153.16
2024-04-19T08:38:26.453Z,101165.72
2024-04-19T08:40:58.339Z,101171.25
2024-04-19T08:43:32.742Z,101160.59
2024-04-19T08:46:02.897Z,101161.34
2024-04-19T08:48:31.525Z,101162.75
2024-04-19T08:51:03.537Z,101161.34
2024-04-19T08:53:33.122Z,101165.34
2024-04-19T08:56:01.243Z,101166.66
2024-04-19T08:58:28.508Z,101162.75
2024-04-19T09:00:56.693Z,101162.19
2024-04-19T09:03:25.141Z,101160.13
2024-04-19T09:05:53.425Z,101150.38
2024-04-19T09:08:21.519Z,101153.94
2024-04-19T09:10:53.008Z,101147.84
2024-04-19T09:13:21.264Z,101148.13
2024-04-19T09:15:49.314Z,101149.78
2024-04-19T09:18:17.756Z,101149.16
2024-04-19T09:20:49.225Z,101142.78
2024-04-19T09:23:17.039Z,101139.28
2024-04-19T09:25:44.948Z,101143.94
2024-04-19T09:28:15.440Z,101146.63
2024-04-19T09:30:44.434Z,101145.88
2024-04-19T09:33:18.189Z,101147.25
2024-04-19T09:35:46.404Z,101137.91
2024-04-19T09:38:14.815Z,101135.22
2024-04-19T09:40:42.828Z,101147.25
2024-04-19T09:43:10.170Z,101143.19
2024-04-19T09:45:44.965Z,101143.84
2024-04-19T09:48:13.352Z,101144.66
2024-04-19T09:50:41.142Z,101132.94
2024-04-19T09:53:12.543Z,101133.56
2024-04-19T09:56:02.879Z,101137.97
2024-04-19T09:58:32.480Z,101135.19
2024-04-19T10:01:00.417Z,101129.31
2024-04-19T10:03:29.281Z,101122.56
2024-04-19T10:05:58.063Z,101115.38
2024-04-19T10:08:26.506Z,101110.06
2024-04-19T10:10:54.886Z,101111.66
2024-04-19T10:13:23.603Z,101118.75
2024-04-19T10:15:51.357Z,101112.13
2024-04-19T10:18:19.524Z,101112.41
2024-04-19T10:20:46.831Z,101098.69
2024-04-19T10:23:16.266Z,101096.47
2024-04-19T10:25:43.696Z,101097.25
2024-04-19T10:28:12.103Z,101094.84
2024-04-19T10:30:42.842Z,101088.91
2024-04-19T10:33:13.801Z,101085.25
2024-04-19T10:36:05.576Z,101078.22
2024-04-19T10:38:34.462Z,101080.72
2024-04-19T10:41:02.223Z,101074.00
2024-04-19T10:43:31.685Z,101067.69
2024-04-19T10:46:02.766Z,101054.06
2024-04-19T10:48:32.855Z,101054.50
2024-04-19T10:51:04.016Z,101050.59
2024-04-19T10:53:31.929Z,101046.22
2024-04-19T10:56:00.014Z,101041.53
2024-04-19T10:58:27.871Z,101033.69
2024-04-19T11:00:56.360Z,101038.13
2024-04-19T11:03:24.631Z,101032.09
2024-04-19T11:05:51.603Z,101021.63
2024-04-19T11:08:20.124Z,101027.00
2024-04-19T11:10:47.095Z,101012.41
2024-04-19T11:13:15.900Z,101012.63
2024-04-19T11:15:48.756Z,101005.63
2024-04-19T11:18:25.184Z,101001.53
2024-04-19T11:21:00.869Z,100990.41
2024-04-19T11:23:36.137Z,100995.97
2024-04-19T11:26:03.866Z,100988.25
2024-04-19T11:28:31.946Z,100984.00
2024-04-19T11:31:01.367Z,100977.94
2024-04-19T11:33:29.093Z,100969.63
2024-04-19T11:35:57.279Z,100967.72
2024-04-19T11:38:25.428Z,100960.84
2024-04-19T11:40:54.287Z,100959.56
2024-04-19T11:43:22.123Z,100947.63
2024-04-19T11:45:50.038Z,100946.97
2024-04-19T11:48:27.675Z,100943.75
2024-04-19T11:50:56.822Z,100944.94
2024-04-19T11:53:24.847Z,100940.63
2024-04-19T11:55:54.343Z,100931.22
2024-04-19T11:58:22.895Z,100924.44
2024-04-19T12:00:52.003Z,100921.03
2024-04-19T12:03:20.247Z,100921.03
2024-04-19T12:05:48.049Z,100913.31
2024-04-19T12:08:16.273Z,100916.78
2024-04-19T12:10:44.196Z,100904.59
2024-04-19T12:13:51.038Z,100907.91
2024-04-19T12:16:31.831Z,100912.16
2024-04-19T12:18:48.237Z,100889.22
2024-04-19T12:21:17.153Z,100887.38
2024-04-19T12:23:47.456Z,100884.66
2024-04-19T12:26:19.099Z,100883.78
2024-04-19T12:28:54.340Z,100881.19
2024-04-19T12:31:24.767Z,100873.59
2024-04-19T12:33:53.262Z,100874.56
2024-04-19T12:36:21.161Z,100876.19
2024-04-19T12:38:51.101Z,100866.41
2024-04-19T12:41:19.028Z,100868.38
2024-04-19T12:43:46.247Z,100864.81
2024-04-19T12:46:14.057Z,100849.13
2024-04-19T12:48:43.233Z,100849.47
2024-04-19T12:51:11.453Z,100843.66
2024-04-19T12:53:39.524Z,100833.84
2024-04-19T12:56:08.920Z,100843.41
2024-04-19T12:58:38.119Z,100839.28
2024-04-19T13:01:07.151Z,100825.53
2024-04-19T13:03:35.854Z,100820.19
2024-04-19T13:06:03.891Z,100828.44
2024-04-19T13:08:31.662Z,100806.34
2024-04-19T13:11:02.073Z,100811.59
2024-04-19T13:13:30.457Z,100797.84
2024-04-19T13:15:58.411Z,100786.81
2024-04-19T13:18:26.577Z,100778.72
2024-04-19T13:20:55.183Z,100788.84
2024-04-19T13:23:24.407Z,100772.25
2024-04-19T13:25:52.685Z,100768.56
2024-04-19T13:28:20.783Z,100761.88
2024-04-19T13:30:52.042Z,100760.81
2024-04-19T13:33:21.174Z,100752.56
2024-04-19T13:35:49.354Z,100749.38
2024-04-19T13:38:17.813Z,100747.13
2024-04-19T13:40:45.737Z,100740.44
2024-04-19T13:43:16.723Z,100725.25
2024-04-19T13:45:45.087Z,100729.81
2024-04-19T13:48:13.270Z,100721.66
2024-04-19T13:50:41.432Z,100716.44
2024-04-19T13:53:09.865Z,100714.53
2024-04-19T13:55:38.032Z,100706.03
2024-04-19T13:58:07.757Z,100702.28
2024-04-19T14:00:36.006Z,100695.41
2024-04-19T14:03:04.924Z,100690.13
2024-04-19T14:05:32.909Z,100686.88
2024-04-19T14:08:01.373Z,100666.63
2024-04-19T14:10:29.708Z,100673.69
2024-04-19T14:12:59.569Z,100671.56
2024-04-19T14:15:27.944Z,100658.53
2024-04-19T14:17:56.727Z,100653.69
2024-04-19T14:20:25.162Z,100643.94
2024-04-19T14:22:53.908Z,100636.56
2024-04-19T14:25:21.656Z,100631.81
2024-04-19T14:27:50.597Z,100630.13
2024-04-19T14:30:18.929Z,100621.97
2024-04-19T14:32:46.651Z,100618.19
2024-04-19T14:35:15.706Z,100607.44
2024-04-19T14:37:43.923Z,100607.84
2024-04-19T14:40:15.657Z,100601.50
2024-04-19T14:42:43.324Z,100594.72
2024-04-19T14:45:11.650Z,100591.03
2024-04-19T14:47:39.178Z,100584.09
2024-04-19T14:50:08.856Z,100585.16
2024-04-19T14:52:36.836Z,100579.38
2024-04-19T14:55:06.139Z,100569.66
2024-04-19T14:57:34.472Z,100566.00
2024-04-19T15:00:02.534Z,100562.06
2024-04-19T15:02:30.631Z,100553.81
2024-04-19T15:04:58.847Z,100554.22
2024-04-19T15:07:27.263Z,100550.06
2024-04-19T15:09:55.206Z,100549.50
2024-04-19T15:12:23.573Z,100536.78
2024-04-19T15:14:52.132Z,100534.84
2024-04-19T15:17:20.494Z,100533.19
2024-04-19T15:19:48.547Z,100527.19
2024-04-19T15:22:17.057Z,100521.00
2024-04-19T15:24:45.140Z,100511.19
2024-04-19T15:27:12.882Z,100513.06
2024-04-19T15:29:41.454Z,100510.84
2024-04-19T15:32:09.813Z,100505.19
2024-04-19T15:34:47.068Z,100514.00
2024-04-19T15:37:16.437Z,100502.28
2024-04-19T15:39:49.163Z,100502.59
2024-04-19T15:42:17.325Z,100500.00
2024-04-19T15:44:46.041Z,100509.31
2024-04-19T15:47:14.485Z,100494.28
2024-04-19T15:49:44.508Z,100485.22
2024-04-19T15:52:13.028Z,100488.88
2024-04-19T15:54:41.267Z,100486.72
2024-04-19T15:57:09.308Z,100479.91
2024-04-19T15:59:37.588Z,100479.94
2024-04-19T16:02:06.328Z,100473.13
2024-04-19T16:04:34.613Z,100473.88
2024-04-19T16:07:02.969Z,100468.34
2024-04-19T16:09:30.788Z,100463.81
2024-04-19T16:11:59.768Z,100454.88
2024-04-19T16:14:27.897Z,100453.72
2024-04-19T16:16:56.454Z,100450.66
2024-04-19T16:19:24.877Z,100449.84
2024-04-19T16:21:52.686Z,100438.19
2024-04-19T16:24:20.856Z,100439.13
2024-04-19T16:26:48.975Z,100423.81
2024-04-19T16:29:16.802Z,100428.28
2024-04-19T16:31:44.923Z,100424.25
2024-04-19T16:34:13.180Z,100426.31
2024-04-19T16:36:42.360Z,100427.91
2024-04-19T16:39:10.261Z,100423.66
2024-04-19T16:41:38.645Z,100425.44
2024-04-19T16:44:06.769Z,100419.56
2024-04-19T16:46:34.238Z,100423.34
2024-04-19T16:49:02.532Z,100418.34
2024-04-19T16:51:30.096Z,100413.78
2024-04-19T16:53:57.837Z,100410.69
2024-04-19T16:56:26.793Z,100412.88
2024-04-19T16:58:55.661Z,100413.16
2024-04-19T17:01:23.733Z,100404.75
2024-04-19T17:03:52.429Z,100403.22
2024-04-19T17:06:20.340Z,100401.53
2024-04-19T17:08:48.618Z,100396.31
2024-04-19T17:11:16.548Z,100396.38
2024-04-19T17:13:44.586Z,100398.19
2024-04-19T17:16:12.639Z,100390.44
2024-04-19T17:18:40.711Z,100387.94
2024-04-19T17:21:09.137Z,100382.75
2024-04-19T17:23:37.396Z,100380.25
2024-04-19T17:26:05.944Z,100382.00
2024-04-19T17:28:34.118Z,100385.53
2024-04-19T17:31:08.694Z,100376.00
2024-04-19T17:33:37.426Z,100369.94
2024-04-19T17:36:06.097Z,100370.78
2024-04-19T17:38:34.458Z,100376.03
2024-04-19T17:41:04.453Z,100374.31
2024-04-19T17:43:32.535Z,100383.00
2024-04-19T17:46:00.701Z,100377.81
2024-04-19T17:48:29.385Z,100373.47
2024-04-19T17:50:57.973Z,100382.25
2024-04-19T17:53:27.257Z,100390.97
2024-04-19T17:55:55.244Z,100383.19
2024-04-19T17:58:23.471Z,100383.19
2024-04-19T18:00:53.893Z,100371.06
2024-04-19T18:03:22.628Z,100375.38
2024-04-19T18:05:50.630Z,100366.69
2024-04-19T18:08:18.689Z,100364.91
2024-04-19T18:10:46.505Z,100370.03
2024-04-19T18:13:14.760Z,100366.50
2024-04-19T18:15:43.093Z,100364.75
2024-04-19T18:18:10.810Z,100370.78
2024-04-19T18:20:40.853Z,100371.63
2024-04-19T18:23:08.603Z,100371.56
2024-04-19T18:25:36.720Z,100359.44
2024-04-19T18:28:05.180Z,100355.06
2024-04-19T18:30:33.839Z,100355.00
2024-04-19T18:33:05.130Z,100353.22
2024-04-19T18:35:34.630Z,100358.28
2024-04-19T18:38:02.822Z,100359.91
2024-04-19T18:40:31.372Z,100354.66
2024-04-19T18:42:59.171Z,100357.22
2024-04-19T18:45:27.144Z,100350.25
2024-04-19T18:47:55.112Z,100347.59
2024-04-19T18:50:24.294Z,100350.13
2024-04-19T18:52:52.234Z,100345.78
2024-04-19T18:55:20.883Z,100346.53
2024-04-19T18:57:51.018Z,100338.66
2024-04-19T19:00:19.341Z,100340.28
2024-04-19T19:02:47.131Z,100340.28
2024-04-19T19:05:16.362Z,100344.56
2024-04-19T19:07:44.007Z,100341.94
2024-04-19T19:10:14.920Z,100337.66
2024-04-19T19:12:46.995Z,100341.09
2024-04-19T19:15:16.462Z,100340.16
2024-04-19T19:17:44.284Z,100342.69
2024-04-19T19:20:13.574Z,100351.19
2024-04-19T19:22:41.356Z,100352.00
2024-04-19T19:25:09.048Z,100352.88
2024-04-19T19:27:36.283Z,100349.28
2024-04-19T19:30:06.218Z,100354.34
2024-04-19T19:32:34.333Z,100345.59
2024-04-19T19:35:03.170Z,100344.59
2024-04-19T19:37:31.435Z,100341.88
2024-04-19T19:40:02.122Z,100346.84
2024-04-19T19:42:30.252Z,100346.69
2024-04-19T19:44:58.311Z,100340.47
2024-04-19T19:47:26.684Z,100336.78
2024-04-19T19:50:04.790Z,100336.50
2024-04-19T19:52:32.351Z,100331.91
2024-04-19T19:55:02.478Z,100335.19
2024-04-19T19:57:30.508Z,100336.00
2024-04-19T20:00:17.390Z,100339.41
2024-04-19T20:03:04.033Z,100336.81
2024-04-19T20:05:46.757Z,100336.78
2024-04-19T20:08:14.305Z,100333.25
2024-04-19T20:10:43.186Z,100334.03
2024-04-19T20:13:11.832Z,100333.22
2024-04-19T20:15:39.424Z,100336.69
2024-04-19T20:18:08.780Z,100334.00
2024-04-19T20:20:37.585Z,100341.72
2024-04-19T20:23:06.377Z,100337.88
2024-04-19T20:25:34.842Z,100340.19
2024-04-19T20:28:03.821Z,100335.91
2024-04-19T20:30:31.641Z,100342.84
2024-04-19T20:32:59.751Z,100345.53
2024-04-19T20:35:27.483Z,100339.50
2024-04-19T20:37:55.192Z,100325.69
2024-04-19T20:40:24.126Z,100330.91
2024-04-19T20:43:03.026Z,100332.59
2024-04-19T20:45:39.075Z,100325.69
2024-04-19T20:48:09.366Z,100321.31
2024-04-19T20:50:37.518Z,100322.09
2024-04-19T20:53:06.159Z,100332.34
2024-04-19T20:55:34.172Z,100333.84
2024-04-19T20:58:02.138Z,100325.19
2024-04-19T21:00:32.921Z,100315.66
2024-04-19T21:03:02.515Z,100322.44
2024-04-19T21:05:29.991Z,100331.59
2024-04-19T21:07:58.851Z,100324.91
2024-04-19T21:10:27.086Z,100320.38
2024-04-19T21:12:55.418Z,100313.47
2024-04-19T21:15:23.566Z,100316.22
2024-04-19T21:17:51.628Z,100311.41
2024-04-19T21:20:19.429Z,100317.56
2024-04-19T21:22:47.370Z,100319.34
2024-04-19T21:25:15.189Z,100319.34
2024-04-19T21:27:43.507Z,100307.25
2024-04-19T21:30:13.453Z,100300.28
2024-04-19T21:32:41.798Z,100298.50
2024-04-19T21:35:09.800Z,100307.75
2024-04-19T21:37:37.811Z,100299.50
2024-04-19T21:40:10.771Z,100294.94
2024-04-19T21:42:39.638Z,100288.78
2024-04-19T21:45:07.678Z,100292.78
2024-04-19T21:47:35.508Z,100294.16
2024-04-19T21:50:04.078Z,100284.28
2024-04-19T21:52:31.387Z,100277.56
2024-04-19T21:54:59.488Z,100275.09
2024-04-19T21:57:27.376Z,100284.03
2024-04-19T21:59:56.238Z,100280.00
2024-04-19T22:02:24.521Z,100292.03
2024-04-19T22:04:52.749Z,100286.06
2024-04-19T22:07:20.501Z,100280.91
2024-04-19T22:09:49.079Z,100285.34
2024-04-19T22:12:19.139Z,100287.16
2024-04-19T22:14:47.780Z,100276.19
2024-04-19T22:17:15.707Z,100272.84
2024-04-19T22:19:43.506Z,100269.44
2024-04-19T22:22:14.460Z,100261.69
2024-04-19T22:24:43.386Z,100261.66
2024-04-19T22:27:11.338Z,100269.44
2024-04-19T22:29:41.014Z,100256.41
2024-04-19T22:32:31.422Z,100255.47
2024-04-19T22:34:59.251Z,100251.22
2024-04-19T22:37:27.355Z,100246.91
2024-04-19T22:39:55.025Z,100248.56
2024-04-19T22:42:23.240Z,100247.66
2024-04-19T22:44:51.212Z,100243.38
2024-04-19T22:47:20.205Z,100240.66
2024-04-19T22:49:48.302Z,100245.03
2024-04-19T22:52:16.944Z,100248.47
2024-04-19T22:54:45.548Z,100248.50
2024-04-19T22:57:13.998Z,100248.22
2024-04-19T22:59:41.979Z,100252.38
2024-04-19T23:02:09.872Z,100262.63
2024-04-19T23:04:38.283Z,100255.94
2024-04-19T23:07:07.384Z,100255.50
2024-04-19T23:09:35.250Z,100257.03
2024-04-19T23:12:02.550Z,100255.28
2024-04-19T23:14:30.390Z,100254.53
2024-04-19T23:16:58.508Z,100257.00
2024-04-19T23:19:27.024Z,100258.50
2024-04-19T23:21:55.576Z,100256.78
2024-04-19T23:24:23.870Z,100244.91
2024-04-19T23:26:51.796Z,100242.31
2024-04-19T23:29:19.885Z,100243.19
2024-04-19T23:31:48.037Z,100240.47
2024-04-19T23:34:16.424Z,100222.41
2024-04-19T23:36:44.474Z,100219.84
2024-04-19T23:39:12.389Z,100215.66
2024-04-19T23:41:41.059Z,100215.50
2024-04-19T23:44:09.366Z,100206.78
2024-04-19T23:46:36.843Z,100198.97
2024-04-19T23:49:04.723Z,100204.09
2024-04-19T23:51:36.272Z,100192.88
2024-04-19T23:54:09.685Z,100201.41
2024-04-19T23:56:37.737Z,100204.91
2024-04-19T23:59:05.755Z,100204.91
